sensor_id;sensor_type;location;lat;lon;timestamp;P1;durP1;ratioP1;P2;durP2;ratioP2
73526;SDS011;61777;48.834;10.470;2022-08-25T00:01:15;6.50;;;3.40;;
73526;SDS011;61777;48.834;10.470;2022-08-25T00:03:42;7.10;;;3.60;;
73526;SDS011;61777;48.834;10.470;2022-08-25T00:06:14;5.93;;;3.38;;
73526;SDS011;61777;48.834;10.470;2022-08-25T00:08:41;6.47;;;3.42;;
73526;SDS011;61777;48.834;10.470;2022-08-25T00:11:09;6.50;;;3.33;;
73526;SDS011;61777;48.834;10.470;2022-08-25T00:13:37;6.82;;;3.58;;
73526;SDS011;61777;48.834;10.470;2022-08-25T00:16:03;5.90;;;3.20;;
73526;SDS011;61777;48.834;10.470;2022-08-25T00:18:30;6.00;;;3.50;;
73526;SDS011;61777;48.834;10.470;2022-08-25T00:20:57;6.78;;;3.50;;
73526;SDS011;61777;48.834;10.470;2022-08-25T00:23:23;6.05;;;3.50;;
73526;SDS011;61777;48.834;10.470;2022-08-25T00:25:49;6.18;;;3.50;;
73526;SDS011;61777;48.834;10.470;2022-08-25T00:28:15;8.40;;;3.65;;
73526;SDS011;61777;48.834;10.470;2022-08-25T00:30:42;7.00;;;3.45;;
73526;SDS011;61777;48.834;10.470;2022-08-25T00:33:09;6.60;;;3.50;;
73526;SDS011;61777;48.834;10.470;2022-08-25T00:35:36;6.15;;;3.33;;
73526;SDS011;61777;48.834;10.470;2022-08-25T00:38:02;7.10;;;3.53;;
73526;SDS011;61777;48.834;10.470;2022-08-25T00:40:28;7.75;;;3.60;;
73526;SDS011;61777;48.834;10.470;2022-08-25T00:42:54;6.10;;;3.33;;
73526;SDS011;61777;48.834;10.470;2022-08-25T00:45:20;6.32;;;3.47;;
73526;SDS011;61777;48.834;10.470;2022-08-25T00:47:47;7.97;;;3.75;;
73526;SDS011;61777;48.834;10.470;2022-08-25T00:50:13;6.60;;;3.53;;
73526;SDS011;61777;48.834;10.470;2022-08-25T00:52:45;7.03;;;3.83;;
73526;SDS011;61777;48.834;10.470;2022-08-25T00:57:43;7.10;;;3.90;;
73526;SDS011;61777;48.834;10.470;2022-08-25T01:00:12;7.97;;;3.70;;
73526;SDS011;61777;48.834;10.470;2022-08-25T01:02:39;6.18;;;3.72;;
73526;SDS011;61777;48.834;10.470;2022-08-25T01:05:08;8.00;;;3.70;;
73526;SDS011;61777;48.834;10.470;2022-08-25T01:07:34;6.53;;;3.72;;
73526;SDS011;61777;48.834;10.470;2022-08-25T01:10:01;6.85;;;3.70;;
73526;SDS011;61777;48.834;10.470;2022-08-25T01:12:27;7.10;;;3.60;;
73526;SDS011;61777;48.834;10.470;2022-08-25T01:14:53;6.97;;;3.83;;
73526;SDS011;61777;48.834;10.470;2022-08-25T01:17:20;6.30;;;3.30;;
73526;SDS011;61777;48.834;10.470;2022-08-25T01:19:46;6.93;;;3.88;;
73526;SDS011;61777;48.834;10.470;2022-08-25T01:22:13;6.22;;;3.67;;
73526;SDS011;61777;48.834;10.470;2022-08-25T01:24:46;6.10;;;3.58;;
73526;SDS011;61777;48.834;10.470;2022-08-25T01:27:17;6.78;;;3.80;;
73526;SDS011;61777;48.834;10.470;2022-08-25T01:29:43;7.47;;;3.97;;
73526;SDS011;61777;48.834;10.470;2022-08-25T01:32:10;7.97;;;3.80;;
73526;SDS011;61777;48.834;10.470;2022-08-25T01:34:38;7.35;;;3.90;;
73526;SDS011;61777;48.834;10.470;2022-08-25T01:37:06;7.40;;;4.03;;
73526;SDS011;61777;48.834;10.470;2022-08-25T01:39:33;6.65;;;3.60;;
73526;SDS011;61777;48.834;10.470;2022-08-25T01:44:36;6.30;;;3.72;;
73526;SDS011;61777;48.834;10.470;2022-08-25T01:47:03;6.68;;;4.28;;
73526;SDS011;61777;48.834;10.470;2022-08-25T01:49:30;6.90;;;3.88;;
73526;SDS011;61777;48.834;10.470;2022-08-25T01:52:01;6.55;;;3.67;;
73526;SDS011;61777;48.834;10.470;2022-08-25T01:54:30;6.43;;;3.60;;
73526;SDS011;61777;48.834;10.470;2022-08-25T01:56:56;6.55;;;3.78;;
73526;SDS011;61777;48.834;10.470;2022-08-25T01:59:22;7.57;;;4.10;;
73526;SDS011;61777;48.834;10.470;2022-08-25T02:01:49;6.88;;;3.75;;
73526;SDS011;61777;48.834;10.470;2022-08-25T02:04:16;6.55;;;4.07;;
73526;SDS011;61777;48.834;10.470;2022-08-25T02:06:42;6.53;;;3.70;;
73526;SDS011;61777;48.834;10.470;2022-08-25T02:09:09;6.78;;;4.13;;
73526;SDS011;61777;48.834;10.470;2022-08-25T02:11:36;7.25;;;4.15;;
73526;SDS011;61777;48.834;10.470;2022-08-25T02:14:03;7.45;;;3.75;;
73526;SDS011;61777;48.834;10.470;2022-08-25T02:16:31;6.93;;;3.88;;
73526;SDS011;61777;48.834;10.470;2022-08-25T02:18:57;6.80;;;3.88;;
73526;SDS011;61777;48.834;10.470;2022-08-25T02:21:24;6.90;;;3.92;;
73526;SDS011;61777;48.834;10.470;2022-08-25T02:23:51;7.47;;;3.85;;
73526;SDS011;61777;48.834;10.470;2022-08-25T02:26:17;7.05;;;4.00;;
73526;SDS011;61777;48.834;10.470;2022-08-25T02:28:47;7.03;;;4.38;;
73526;SDS011;61777;48.834;10.470;2022-08-25T02:31:14;6.68;;;4.00;;
73526;SDS011;61777;48.834;10.470;2022-08-25T02:33:43;7.32;;;4.00;;
73526;SDS011;61777;48.834;10.470;2022-08-25T02:36:10;6.78;;;4.25;;
73526;SDS011;61777;48.834;10.470;2022-08-25T02:38:36;6.78;;;3.72;;
73526;SDS011;61777;48.834;10.470;2022-08-25T02:41:13;8.68;;;4.15;;
73526;SDS011;61777;48.834;10.470;2022-08-25T02:43:39;7.38;;;4.28;;
73526;SDS011;61777;48.834;10.470;2022-08-25T02:46:06;6.75;;;3.78;;
73526;SDS011;61777;48.834;10.470;2022-08-25T02:48:32;7.93;;;3.90;;
73526;SDS011;61777;48.834;10.470;2022-08-25T02:51:00;6.65;;;3.83;;
73526;SDS011;61777;48.834;10.470;2022-08-25T02:53:26;6.90;;;4.13;;
73526;SDS011;61777;48.834;10.470;2022-08-25T02:55:53;7.15;;;4.00;;
73526;SDS011;61777;48.834;10.470;2022-08-25T02:58:19;6.35;;;3.85;;
73526;SDS011;61777;48.834;10.470;2022-08-25T03:00:46;6.30;;;4.00;;
73526;SDS011;61777;48.834;10.470;2022-08-25T03:03:12;7.07;;;3.95;;
73526;SDS011;61777;48.834;10.470;2022-08-25T03:05:39;7.38;;;4.15;;
73526;SDS011;61777;48.834;10.470;2022-08-25T03:08:06;6.93;;;4.25;;
73526;SDS011;61777;48.834;10.470;2022-08-25T03:10:32;7.55;;;4.00;;
73526;SDS011;61777;48.834;10.470;2022-08-25T03:12:59;7.45;;;3.97;;
73526;SDS011;61777;48.834;10.470;2022-08-25T03:15:25;6.80;;;3.90;;
73526;SDS011;61777;48.834;10.470;2022-08-25T03:17:52;8.00;;;4.07;;
73526;SDS011;61777;48.834;10.470;2022-08-25T03:20:19;7.53;;;4.60;;
73526;SDS011;61777;48.834;10.470;2022-08-25T03:22:45;7.47;;;4.22;;
73526;SDS011;61777;48.834;10.470;2022-08-25T03:25:11;7.32;;;4.20;;
73526;SDS011;61777;48.834;10.470;2022-08-25T03:27:56;6.70;;;4.13;;
73526;SDS011;61777;48.834;10.470;2022-08-25T03:30:22;6.45;;;3.80;;
73526;SDS011;61777;48.834;10.470;2022-08-25T03:32:48;8.25;;;3.92;;
73526;SDS011;61777;48.834;10.470;2022-08-25T03:35:14;7.03;;;4.20;;
73526;SDS011;61777;48.834;10.470;2022-08-25T03:37:40;7.30;;;4.38;;
73526;SDS011;61777;48.834;10.470;2022-08-25T03:40:09;8.43;;;4.07;;
73526;SDS011;61777;48.834;10.470;2022-08-25T03:42:35;8.32;;;4.20;;
73526;SDS011;61777;48.834;10.470;2022-08-25T03:45:04;6.97;;;4.28;;
73526;SDS011;61777;48.834;10.470;2022-08-25T03:47:32;7.70;;;4.32;;
73526;SDS011;61777;48.834;10.470;2022-08-25T03:49:58;8.13;;;4.28;;
73526;SDS011;61777;48.834;10.470;2022-08-25T03:52:24;7.10;;;4.05;;
73526;SDS011;61777;48.834;10.470;2022-08-25T03:54:51;7.55;;;4.18;;
73526;SDS011;61777;48.834;10.470;2022-08-25T03:57:17;7.55;;;4.20;;
73526;SDS011;61777;48.834;10.470;2022-08-25T03:59:44;7.03;;;4.38;;
73526;SDS011;61777;48.834;10.470;2022-08-25T04:02:11;6.93;;;4.38;;
73526;SDS011;61777;48.834;10.470;2022-08-25T04:04:37;7.53;;;3.95;;
73526;SDS011;61777;48.834;10.470;2022-08-25T04:07:04;7.70;;;4.35;;
73526;SDS011;61777;48.834;10.470;2022-08-25T04:09:30;8.10;;;4.30;;
73526;SDS011;61777;48.834;10.470;2022-08-25T04:11:56;6.43;;;4.07;;
73526;SDS011;61777;48.834;10.470;2022-08-25T04:14:23;7.18;;;4.13;;
73526;SDS011;61777;48.834;10.470;2022-08-25T04:16:49;7.35;;;4.10;;
73526;SDS011;61777;48.834;10.470;2022-08-25T04:19:16;7.25;;;3.88;;
73526;SDS011;61777;48.834;10.470;2022-08-25T04:21:42;8.43;;;4.10;;
73526;SDS011;61777;48.834;10.470;2022-08-25T04:24:09;6.97;;;4.20;;
73526;SDS011;61777;48.834;10.470;2022-08-25T04:26:37;7.75;;;3.88;;
73526;SDS011;61777;48.834;10.470;2022-08-25T04:29:05;6.90;;;4.13;;
73526;SDS011;61777;48.834;10.470;2022-08-25T04:31:31;7.15;;;4.10;;
73526;SDS011;61777;48.834;10.470;2022-08-25T04:34:00;6.72;;;3.83;;
73526;SDS011;61777;48.834;10.470;2022-08-25T04:36:26;6.82;;;4.32;;
73526;SDS011;61777;48.834;10.470;2022-08-25T04:38:52;6.78;;;3.88;;
73526;SDS011;61777;48.834;10.470;2022-08-25T04:41:19;7.07;;;4.05;;
73526;SDS011;61777;48.834;10.470;2022-08-25T04:43:45;7.55;;;4.10;;
73526;SDS011;61777;48.834;10.470;2022-08-25T04:46:13;6.18;;;3.72;;
73526;SDS011;61777;48.834;10.470;2022-08-25T04:48:39;6.53;;;3.75;;
73526;SDS011;61777;48.834;10.470;2022-08-25T04:51:07;6.57;;;3.72;;
73526;SDS011;61777;48.834;10.470;2022-08-25T04:53:33;7.95;;;3.75;;
73526;SDS011;61777;48.834;10.470;2022-08-25T04:55:59;7.32;;;3.97;;
73526;SDS011;61777;48.834;10.470;2022-08-25T04:58:26;6.82;;;4.10;;
73526;SDS011;61777;48.834;10.470;2022-08-25T05:00:52;6.60;;;3.97;;
73526;SDS011;61777;48.834;10.470;2022-08-25T05:03:18;6.85;;;3.72;;
73526;SDS011;61777;48.834;10.470;2022-08-25T05:05:44;7.75;;;3.70;;
73526;SDS011;61777;48.834;10.470;2022-08-25T05:08:10;7.03;;;4.18;;
73526;SDS011;61777;48.834;10.470;2022-08-25T05:10:39;6.65;;;4.10;;
73526;SDS011;61777;48.834;10.470;2022-08-25T05:13:05;7.25;;;4.00;;
73526;SDS011;61777;48.834;10.470;2022-08-25T05:15:31;6.93;;;3.90;;
73526;SDS011;61777;48.834;10.470;2022-08-25T05:20:42;6.50;;;3.75;;
73526;SDS011;61777;48.834;10.470;2022-08-25T05:23:08;6.60;;;3.92;;
73526;SDS011;61777;48.834;10.470;2022-08-25T05:25:34;7.18;;;4.40;;
73526;SDS011;61777;48.834;10.470;2022-08-25T05:28:00;7.63;;;3.85;;
73526;SDS011;61777;48.834;10.470;2022-08-25T05:30:26;6.40;;;3.83;;
73526;SDS011;61777;48.834;10.470;2022-08-25T05:32:52;8.23;;;3.80;;
73526;SDS011;61777;48.834;10.470;2022-08-25T05:35:18;6.70;;;3.42;;
73526;SDS011;61777;48.834;10.470;2022-08-25T05:37:45;8.07;;;4.13;;
73526;SDS011;61777;48.834;10.470;2022-08-25T05:40:11;6.18;;;3.50;;
73526;SDS011;61777;48.834;10.470;2022-08-25T05:42:37;6.63;;;3.70;;
73526;SDS011;61777;48.834;10.470;2022-08-25T05:45:04;8.05;;;3.72;;
73526;SDS011;61777;48.834;10.470;2022-08-25T05:47:31;6.55;;;3.53;;
73526;SDS011;61777;48.834;10.470;2022-08-25T05:49:57;6.80;;;4.00;;
73526;SDS011;61777;48.834;10.470;2022-08-25T05:52:23;7.68;;;3.55;;
73526;SDS011;61777;48.834;10.470;2022-08-25T05:54:49;6.55;;;3.88;;
73526;SDS011;61777;48.834;10.470;2022-08-25T05:57:15;6.68;;;3.53;;
73526;SDS011;61777;48.834;10.470;2022-08-25T05:59:41;6.32;;;3.55;;
73526;SDS011;61777;48.834;10.470;2022-08-25T06:02:07;8.07;;;3.70;;
73526;SDS011;61777;48.834;10.470;2022-08-25T06:04:51;7.63;;;3.95;;
73526;SDS011;61777;48.834;10.470;2022-08-25T06:07:17;6.13;;;3.70;;
73526;SDS011;61777;48.834;10.470;2022-08-25T06:09:44;6.90;;;3.70;;
73526;SDS011;61777;48.834;10.470;2022-08-25T06:12:13;6.88;;;3.75;;
73526;SDS011;61777;48.834;10.470;2022-08-25T06:14:39;6.90;;;3.60;;
73526;SDS011;61777;48.834;10.470;2022-08-25T06:17:07;6.90;;;3.65;;
73526;SDS011;61777;48.834;10.470;2022-08-25T06:19:33;7.35;;;3.47;;
73526;SDS011;61777;48.834;10.470;2022-08-25T06:21:59;6.43;;;3.53;;
73526;SDS011;61777;48.834;10.470;2022-08-25T06:24:25;6.15;;;3.47;;
73526;SDS011;61777;48.834;10.470;2022-08-25T06:26:52;6.65;;;4.10;;
73526;SDS011;61777;48.834;10.470;2022-08-25T06:29:18;6.97;;;3.92;;
73526;SDS011;61777;48.834;10.470;2022-08-25T06:31:45;6.85;;;3.70;;
73526;SDS011;61777;48.834;10.470;2022-08-25T06:34:11;6.40;;;3.80;;
73526;SDS011;61777;48.834;10.470;2022-08-25T06:36:38;6.72;;;3.25;;
73526;SDS011;61777;48.834;10.470;2022-08-25T06:39:04;5.72;;;3.33;;
73526;SDS011;61777;48.834;10.470;2022-08-25T06:41:30;7.18;;;3.83;;
73526;SDS011;61777;48.834;10.470;2022-08-25T06:43:56;6.75;;;3.45;;
73526;SDS011;61777;48.834;10.470;2022-08-25T06:46:24;6.28;;;3.55;;
73526;SDS011;61777;48.834;10.470;2022-08-25T06:48:55;6.22;;;3.60;;
73526;SDS011;61777;48.834;10.470;2022-08-25T06:51:22;7.10;;;3.55;;
73526;SDS011;61777;48.834;10.470;2022-08-25T06:53:49;6.68;;;3.45;;
73526;SDS011;61777;48.834;10.470;2022-08-25T06:56:16;6.47;;;3.40;;
73526;SDS011;61777;48.834;10.470;2022-08-25T06:58:42;6.03;;;3.47;;
73526;SDS011;61777;48.834;10.470;2022-08-25T07:01:12;5.80;;;3.30;;
73526;SDS011;61777;48.834;10.470;2022-08-25T07:03:38;6.22;;;3.50;;
73526;SDS011;61777;48.834;10.470;2022-08-25T07:06:05;7.68;;;3.78;;
73526;SDS011;61777;48.834;10.470;2022-08-25T07:08:32;7.22;;;3.47;;
73526;SDS011;61777;48.834;10.470;2022-08-25T07:11:03;6.10;;;3.28;;
73526;SDS011;61777;48.834;10.470;2022-08-25T07:13:29;7.90;;;3.60;;
73526;SDS011;61777;48.834;10.470;2022-08-25T07:15:56;5.72;;;3.50;;
73526;SDS011;61777;48.834;10.470;2022-08-25T07:18:22;5.88;;;3.20;;
73526;SDS011;61777;48.834;10.470;2022-08-25T07:20:48;6.82;;;3.50;;
73526;SDS011;61777;48.834;10.470;2022-08-25T07:23:16;7.05;;;3.83;;
73526;SDS011;61777;48.834;10.470;2022-08-25T07:25:42;7.28;;;3.58;;
73526;SDS011;61777;48.834;10.470;2022-08-25T07:28:09;6.78;;;3.80;;
73526;SDS011;61777;48.834;10.470;2022-08-25T07:30:35;6.50;;;3.47;;
73526;SDS011;61777;48.834;10.470;2022-08-25T07:33:01;6.70;;;3.47;;
73526;SDS011;61777;48.834;10.470;2022-08-25T07:35:27;7.65;;;3.60;;
73526;SDS011;61777;48.834;10.470;2022-08-25T07:37:56;7.85;;;3.60;;
73526;SDS011;61777;48.834;10.470;2022-08-25T07:40:26;6.28;;;3.38;;
73526;SDS011;61777;48.834;10.470;2022-08-25T07:42:53;7.00;;;3.72;;
73526;SDS011;61777;48.834;10.470;2022-08-25T07:45:21;10.63;;;3.88;;
73526;SDS011;61777;48.834;10.470;2022-08-25T07:47:54;9.90;;;6.35;;
73526;SDS011;61777;48.834;10.470;2022-08-25T07:50:21;11.00;;;6.05;;
73526;SDS011;61777;48.834;10.470;2022-08-25T07:52:48;11.82;;;8.05;;
73526;SDS011;61777;48.834;10.470;2022-08-25T07:55:15;11.50;;;6.30;;
73526;SDS011;61777;48.834;10.470;2022-08-25T07:57:41;12.00;;;7.75;;
73526;SDS011;61777;48.834;10.470;2022-08-25T08:00:12;11.55;;;6.47;;
73526;SDS011;61777;48.834;10.470;2022-08-25T08:02:39;12.70;;;7.75;;
73526;SDS011;61777;48.834;10.470;2022-08-25T08:05:07;12.02;;;7.60;;
73526;SDS011;61777;48.834;10.470;2022-08-25T08:07:33;12.15;;;7.75;;
73526;SDS011;61777;48.834;10.470;2022-08-25T08:09:59;11.25;;;6.90;;
73526;SDS011;61777;48.834;10.470;2022-08-25T08:12:25;11.98;;;7.38;;
73526;SDS011;61777;48.834;10.470;2022-08-25T08:14:52;13.25;;;6.95;;
73526;SDS011;61777;48.834;10.470;2022-08-25T08:17:20;14.75;;;8.35;;
73526;SDS011;61777;48.834;10.470;2022-08-25T08:19:46;12.00;;;7.80;;
73526;SDS011;61777;48.834;10.470;2022-08-25T08:22:13;11.82;;;7.40;;
73526;SDS011;61777;48.834;10.470;2022-08-25T08:24:40;12.98;;;7.50;;
73526;SDS011;61777;48.834;10.470;2022-08-25T08:27:09;13.85;;;7.50;;
73526;SDS011;61777;48.834;10.470;2022-08-25T08:29:36;10.80;;;6.80;;
73526;SDS011;61777;48.834;10.470;2022-08-25T08:32:04;12.63;;;7.38;;
73526;SDS011;61777;48.834;10.470;2022-08-25T08:34:31;14.38;;;7.03;;
73526;SDS011;61777;48.834;10.470;2022-08-25T08:36:57;10.55;;;7.05;;
73526;SDS011;61777;48.834;10.470;2022-08-25T08:39:24;10.52;;;7.45;;
73526;SDS011;61777;48.834;10.470;2022-08-25T08:44:44;10.40;;;6.15;;
73526;SDS011;61777;48.834;10.470;2022-08-25T08:49:51;10.30;;;6.22;;
73526;SDS011;61777;48.834;10.470;2022-08-25T08:52:21;9.15;;;5.65;;
73526;SDS011;61777;48.834;10.470;2022-08-25T08:54:51;9.40;;;5.78;;
73526;SDS011;61777;48.834;10.470;2022-08-25T08:57:21;12.38;;;5.95;;
73526;SDS011;61777;48.834;10.470;2022-08-25T09:00:00;11.13;;;5.70;;
73526;SDS011;61777;48.834;10.470;2022-08-25T09:05:02;10.15;;;5.13;;
73526;SDS011;61777;48.834;10.470;2022-08-25T09:07:34;11.05;;;5.88;;
73526;SDS011;61777;48.834;10.470;2022-08-25T09:10:01;12.20;;;5.70;;
73526;SDS011;61777;48.834;10.470;2022-08-25T09:15:03;8.52;;;5.03;;
73526;SDS011;61777;48.834;10.470;2022-08-25T09:25:33;10.73;;;5.78;;
73526;SDS011;61777;48.834;10.470;2022-08-25T09:28:12;10.38;;;5.80;;
73526;SDS011;61777;48.834;10.470;2022-08-25T09:33:06;11.60;;;5.78;;
73526;SDS011;61777;48.834;10.470;2022-08-25T09:35:34;9.98;;;5.95;;
73526;SDS011;61777;48.834;10.470;2022-08-25T09:38:03;10.65;;;5.55;;
73526;SDS011;61777;48.834;10.470;2022-08-25T09:40:30;10.07;;;5.75;;
73526;SDS011;61777;48.834;10.470;2022-08-25T09:43:00;10.32;;;6.13;;
73526;SDS011;61777;48.834;10.470;2022-08-25T09:45:39;11.63;;;6.22;;
73526;SDS011;61777;48.834;10.470;2022-08-25T09:48:52;12.63;;;5.78;;
73526;SDS011;61777;48.834;10.470;2022-08-25T09:50:53;9.02;;;5.82;;
73526;SDS011;61777;48.834;10.470;2022-08-25T09:53:22;9.73;;;5.78;;
73526;SDS011;61777;48.834;10.470;2022-08-25T09:55:52;11.38;;;5.47;;
73526;SDS011;61777;48.834;10.470;2022-08-25T09:58:20;9.48;;;6.10;;
73526;SDS011;61777;48.834;10.470;2022-08-25T10:06:20;11.40;;;6.25;;
73526;SDS011;61777;48.834;10.470;2022-08-25T10:11:13;12.20;;;6.85;;
73526;SDS011;61777;48.834;10.470;2022-08-25T10:13:41;12.55;;;6.38;;
73526;SDS011;61777;48.834;10.470;2022-08-25T10:16:21;11.98;;;5.63;;
73526;SDS011;61777;48.834;10.470;2022-08-25T10:19:06;11.00;;;5.75;;
73526;SDS011;61777;48.834;10.470;2022-08-25T10:21:33;10.20;;;5.50;;
73526;SDS011;61777;48.834;10.470;2022-08-25T10:23:59;12.02;;;6.72;;
73526;SDS011;61777;48.834;10.470;2022-08-25T10:26:33;12.20;;;6.50;;
73526;SDS011;61777;48.834;10.470;2022-08-25T10:31:35;15.20;;;6.40;;
73526;SDS011;61777;48.834;10.470;2022-08-25T10:34:11;12.77;;;6.72;;
73526;SDS011;61777;48.834;10.470;2022-08-25T10:39:34;14.90;;;6.68;;
73526;SDS011;61777;48.834;10.470;2022-08-25T10:44:33;16.02;;;7.32;;
73526;SDS011;61777;48.834;10.470;2022-08-25T10:49:47;15.10;;;6.78;;
73526;SDS011;61777;48.834;10.470;2022-08-25T10:52:28;11.93;;;6.97;;
73526;SDS011;61777;48.834;10.470;2022-08-25T10:55:16;12.57;;;6.90;;
73526;SDS011;61777;48.834;10.470;2022-08-25T11:00:17;13.85;;;6.65;;
73526;SDS011;61777;48.834;10.470;2022-08-25T11:02:59;12.13;;;6.63;;
73526;SDS011;61777;48.834;10.470;2022-08-25T11:05:28;14.10;;;6.85;;
73526;SDS011;61777;48.834;10.470;2022-08-25T11:08:00;11.88;;;6.85;;
73526;SDS011;61777;48.834;10.470;2022-08-25T11:13:17;10.85;;;6.70;;
73526;SDS011;61777;48.834;10.470;2022-08-25T11:15:57;11.45;;;6.65;;
73526;SDS011;61777;48.834;10.470;2022-08-25T11:18:25;11.35;;;6.38;;
73526;SDS011;61777;48.834;10.470;2022-08-25T11:21:08;10.70;;;6.47;;
73526;SDS011;61777;48.834;10.470;2022-08-25T11:23:43;11.63;;;6.80;;
73526;SDS011;61777;48.834;10.470;2022-08-25T11:26:11;12.10;;;6.03;;
73526;SDS011;61777;48.834;10.470;2022-08-25T11:31:23;10.43;;;6.53;;
73526;SDS011;61777;48.834;10.470;2022-08-25T11:33:50;11.15;;;6.15;;
73526;SDS011;61777;48.834;10.470;2022-08-25T11:41:18;9.82;;;6.07;;
73526;SDS011;61777;48.834;10.470;2022-08-25T11:51:27;11.93;;;6.35;;
73526;SDS011;61777;48.834;10.470;2022-08-25T11:57:09;9.25;;;6.07;;
73526;SDS011;61777;48.834;10.470;2022-08-25T12:05:05;12.07;;;5.93;;
73526;SDS011;61777;48.834;10.470;2022-08-25T12:15:14;12.73;;;6.00;;
73526;SDS011;61777;48.834;10.470;2022-08-25T12:17:57;13.88;;;6.07;;
73526;SDS011;61777;48.834;10.470;2022-08-25T12:23:15;12.10;;;6.15;;
73526;SDS011;61777;48.834;10.470;2022-08-25T12:25:43;12.88;;;6.28;;
73526;SDS011;61777;48.834;10.470;2022-08-25T12:28:21;10.18;;;5.95;;
73526;SDS011;61777;48.834;10.470;2022-08-25T12:30:56;15.52;;;5.68;;
73526;SDS011;61777;48.834;10.470;2022-08-25T12:33:33;13.93;;;6.03;;
73526;SDS011;61777;48.834;10.470;2022-08-25T12:36:05;13.85;;;5.95;;
73526;SDS011;61777;48.834;10.470;2022-08-25T12:38:43;12.23;;;5.82;;
73526;SDS011;61777;48.834;10.470;2022-08-25T12:43:40;11.90;;;6.03;;
73526;SDS011;61777;48.834;10.470;2022-08-25T12:48:59;12.90;;;6.10;;
73526;SDS011;61777;48.834;10.470;2022-08-25T12:51:28;11.48;;;5.35;;
73526;SDS011;61777;48.834;10.470;2022-08-25T12:56:41;14.63;;;5.80;;
73526;SDS011;61777;48.834;10.470;2022-08-25T12:59:15;13.38;;;5.50;;
73526;SDS011;61777;48.834;10.470;2022-08-25T13:15:10;25.73;;;6.60;;
73526;SDS011;61777;48.834;10.470;2022-08-25T13:17:38;37.40;;;7.13;;
73526;SDS011;61777;48.834;10.470;2022-08-25T13:20:11;35.60;;;7.13;;
73526;SDS011;61777;48.834;10.470;2022-08-25T13:22:37;24.48;;;6.80;;
73526;SDS011;61777;48.834;10.470;2022-08-25T13:25:04;24.75;;;6.13;;
73526;SDS011;61777;48.834;10.470;2022-08-25T13:27:30;24.45;;;6.10;;
73526;SDS011;61777;48.834;10.470;2022-08-25T13:29:58;16.92;;;5.78;;
73526;SDS011;61777;48.834;10.470;2022-08-25T13:32:26;21.23;;;6.22;;
73526;SDS011;61777;48.834;10.470;2022-08-25T13:34:58;18.30;;;6.10;;
73526;SDS011;61777;48.834;10.470;2022-08-25T13:37:32;13.45;;;5.65;;
73526;SDS011;61777;48.834;10.470;2022-08-25T13:40:08;16.90;;;6.28;;
73526;SDS011;61777;48.834;10.470;2022-08-25T13:42:35;15.40;;;5.88;;
73526;SDS011;61777;48.834;10.470;2022-08-25T13:45:04;16.10;;;5.65;;
73526;SDS011;61777;48.834;10.470;2022-08-25T13:47:35;14.43;;;5.60;;
73526;SDS011;61777;48.834;10.470;2022-08-25T13:52:47;13.82;;;5.50;;
73526;SDS011;61777;48.834;10.470;2022-08-25T13:55:27;13.77;;;5.53;;
73526;SDS011;61777;48.834;10.470;2022-08-25T13:57:55;16.65;;;6.03;;
73526;SDS011;61777;48.834;10.470;2022-08-25T14:00:26;14.60;;;6.10;;
73526;SDS011;61777;48.834;10.470;2022-08-25T14:02:53;18.98;;;5.93;;
73526;SDS011;61777;48.834;10.470;2022-08-25T14:05:39;16.35;;;6.00;;
73526;SDS011;61777;48.834;10.470;2022-08-25T14:08:06;12.60;;;5.88;;
73526;SDS011;61777;48.834;10.470;2022-08-25T14:10:36;20.80;;;5.90;;
73526;SDS011;61777;48.834;10.470;2022-08-25T14:15:37;13.73;;;5.35;;
73526;SDS011;61777;48.834;10.470;2022-08-25T14:18:26;11.63;;;5.35;;
73526;SDS011;61777;48.834;10.470;2022-08-25T14:20:51;12.68;;;5.82;;
73526;SDS011;61777;48.834;10.470;2022-08-25T14:23:18;12.45;;;5.63;;
73526;SDS011;61777;48.834;10.470;2022-08-25T14:25:47;11.20;;;5.05;;
73526;SDS011;61777;48.834;10.470;2022-08-25T14:28:15;11.60;;;5.50;;
73526;SDS011;61777;48.834;10.470;2022-08-25T14:30:42;10.43;;;5.30;;
73526;SDS011;61777;48.834;10.470;2022-08-25T14:33:10;13.02;;;5.05;;
73526;SDS011;61777;48.834;10.470;2022-08-25T14:35:36;13.93;;;5.30;;
73526;SDS011;61777;48.834;10.470;2022-08-25T14:38:08;9.63;;;5.18;;
73526;SDS011;61777;48.834;10.470;2022-08-25T14:40:35;11.27;;;5.57;;
73526;SDS011;61777;48.834;10.470;2022-08-25T14:43:02;12.45;;;5.78;;
73526;SDS011;61777;48.834;10.470;2022-08-25T14:45:28;11.45;;;5.22;;
73526;SDS011;61777;48.834;10.470;2022-08-25T14:47:55;10.10;;;5.22;;
73526;SDS011;61777;48.834;10.470;2022-08-25T14:50:24;13.48;;;5.38;;
73526;SDS011;61777;48.834;10.470;2022-08-25T14:52:50;10.88;;;5.30;;
73526;SDS011;61777;48.834;10.470;2022-08-25T14:55:16;9.15;;;5.55;;
73526;SDS011;61777;48.834;10.470;2022-08-25T14:57:42;10.25;;;5.05;;
73526;SDS011;61777;48.834;10.470;2022-08-25T15:00:08;9.98;;;5.00;;
73526;SDS011;61777;48.834;10.470;2022-08-25T15:02:36;10.15;;;5.07;;
73526;SDS011;61777;48.834;10.470;2022-08-25T15:05:03;9.05;;;5.00;;
73526;SDS011;61777;48.834;10.470;2022-08-25T15:07:32;10.65;;;5.15;;
73526;SDS011;61777;48.834;10.470;2022-08-25T15:10:17;8.60;;;4.72;;
73526;SDS011;61777;48.834;10.470;2022-08-25T15:12:43;8.77;;;4.90;;
73526;SDS011;61777;48.834;10.470;2022-08-25T15:15:09;8.65;;;5.00;;
73526;SDS011;61777;48.834;10.470;2022-08-25T15:17:36;9.57;;;4.90;;
73526;SDS011;61777;48.834;10.470;2022-08-25T15:20:02;8.32;;;4.82;;
73526;SDS011;61777;48.834;10.470;2022-08-25T15:22:28;9.43;;;5.00;;
73526;SDS011;61777;48.834;10.470;2022-08-25T15:24:54;8.23;;;4.85;;
73526;SDS011;61777;48.834;10.470;2022-08-25T15:27:20;10.57;;;5.30;;
73526;SDS011;61777;48.834;10.470;2022-08-25T15:29:47;8.60;;;4.65;;
73526;SDS011;61777;48.834;10.470;2022-08-25T15:32:13;9.60;;;4.85;;
73526;SDS011;61777;48.834;10.470;2022-08-25T15:34:39;10.18;;;5.28;;
73526;SDS011;61777;48.834;10.470;2022-08-25T15:37:09;7.85;;;5.10;;
73526;SDS011;61777;48.834;10.470;2022-08-25T15:39:37;13.63;;;4.80;;
73526;SDS011;61777;48.834;10.470;2022-08-25T15:42:03;11.70;;;5.35;;
73526;SDS011;61777;48.834;10.470;2022-08-25T15:44:30;8.98;;;4.80;;
73526;SDS011;61777;48.834;10.470;2022-08-25T15:46:56;9.30;;;4.85;;
73526;SDS011;61777;48.834;10.470;2022-08-25T15:49:23;9.68;;;5.03;;
73526;SDS011;61777;48.834;10.470;2022-08-25T15:51:53;9.40;;;5.10;;
73526;SDS011;61777;48.834;10.470;2022-08-25T15:54:19;8.57;;;4.13;;
73526;SDS011;61777;48.834;10.470;2022-08-25T15:56:46;9.80;;;4.20;;
73526;SDS011;61777;48.834;10.470;2022-08-25T15:59:12;9.32;;;4.57;;
73526;SDS011;61777;48.834;10.470;2022-08-25T16:01:39;8.02;;;4.68;;
73526;SDS011;61777;48.834;10.470;2022-08-25T16:04:05;8.88;;;4.22;;
73526;SDS011;61777;48.834;10.470;2022-08-25T16:06:31;9.85;;;4.85;;
73526;SDS011;61777;48.834;10.470;2022-08-25T16:08:58;7.55;;;4.07;;
73526;SDS011;61777;48.834;10.470;2022-08-25T16:11:25;8.93;;;4.53;;
73526;SDS011;61777;48.834;10.470;2022-08-25T16:13:52;9.35;;;4.75;;
73526;SDS011;61777;48.834;10.470;2022-08-25T16:16:19;7.28;;;4.00;;
73526;SDS011;61777;48.834;10.470;2022-08-25T16:18:45;8.00;;;4.50;;
73526;SDS011;61777;48.834;10.470;2022-08-25T16:21:13;7.53;;;4.68;;
73526;SDS011;61777;48.834;10.470;2022-08-25T16:23:39;7.95;;;4.50;;
73526;SDS011;61777;48.834;10.470;2022-08-25T16:26:06;8.52;;;4.82;;
73526;SDS011;61777;48.834;10.470;2022-08-25T16:28:33;9.88;;;4.68;;
73526;SDS011;61777;48.834;10.470;2022-08-25T16:31:00;11.23;;;4.25;;